sensor_id;sensor_type;location;lat;lon;timestamp;pressure;altitude;pressure_sealevel;temperature;humidity
12722;BME280;6425;50.316;8.114;2022-10-16T00:03:42;98675.75;;;14.47;78.44
12722;BME280;6425;50.316;8.114;2022-10-16T00:08:45;98676.56;;;14.10;79.48
12722;BME280;6425;50.316;8.114;2022-10-16T00:13:47;98668.41;;;14.42;79.18
12722;BME280;6425;50.316;8.114;2022-10-16T00:18:48;98684.16;;;14.37;77.92
12722;BME280;6425;50.316;8.114;2022-10-16T00:23:52;98693.66;;;14.68;77.53
12722;BME280;6425;50.316;8.114;2022-10-16T00:28:52;98685.81;;;14.56;77.24
12722;BME280;6425;50.316;8.114;2022-10-16T00:33:53;98692.06;;;14.81;77.16
12722;BME280;6425;50.316;8.114;2022-10-16T00:38:57;98689.91;;;14.59;77.83
12722;BME280;6425;50.316;8.114;2022-10-16T00:44:00;98689.22;;;14.11;79.01
12722;BME280;6425;50.316;8.114;2022-10-16T00:49:03;98688.06;;;14.73;77.76
12722;BME280;6425;50.316;8.114;2022-10-16T00:54:09;98708.34;;;14.96;75.72
12722;BME280;6425;50.316;8.114;2022-10-16T00:59:16;98699.38;;;15.04;75.05
12722;BME280;6425;50.316;8.114;2022-10-16T01:04:18;98708.56;;;14.67;76.28
12722;BME280;6425;50.316;8.114;2022-10-16T01:09:22;98710.53;;;14.43;76.69
12722;BME280;6425;50.316;8.114;2022-10-16T01:14:32;98705.94;;;14.76;76.21
12722;BME280;6425;50.316;8.114;2022-10-16T01:19:49;98719.88;;;14.85;75.05
12722;BME280;6425;50.316;8.114;2022-10-16T01:24:54;98724.59;;;14.41;77.54
12722;BME280;6425;50.316;8.114;2022-10-16T01:30:02;98711.00;;;14.69;76.09
12722;BME280;6425;50.316;8.114;2022-10-16T01:35:09;98707.19;;;14.46;75.35
12722;BME280;6425;50.316;8.114;2022-10-16T01:40:12;98713.03;;;14.01;76.98
12722;BME280;6425;50.316;8.114;2022-10-16T01:45:18;98703.22;;;14.14;76.46
12722;BME280;6425;50.316;8.114;2022-10-16T01:50:20;98717.34;;;13.65;79.24
12722;BME280;6425;50.316;8.114;2022-10-16T01:55:24;98739.28;;;13.70;79.65
12722;BME280;6425;50.316;8.114;2022-10-16T02:00:29;98721.53;;;14.05;77.79
12722;BME280;6425;50.316;8.114;2022-10-16T02:05:32;98725.41;;;14.23;76.63
12722;BME280;6425;50.316;8.114;2022-10-16T02:10:35;98717.69;;;14.44;74.90
12722;BME280;6425;50.316;8.114;2022-10-16T02:15:37;98726.19;;;14.85;74.34
12722;BME280;6425;50.316;8.114;2022-10-16T02:20:44;98750.53;;;14.40;75.06
12722;BME280;6425;50.316;8.114;2022-10-16T02:25:47;98739.16;;;14.66;74.51
12722;BME280;6425;50.316;8.114;2022-10-16T02:30:54;98752.94;;;15.03;73.49
12722;BME280;6425;50.316;8.114;2022-10-16T02:35:57;98724.69;;;15.25;72.12
12722;BME280;6425;50.316;8.114;2022-10-16T02:40:58;98759.19;;;15.09;72.25
12722;BME280;6425;50.316;8.114;2022-10-16T02:46:00;98765.91;;;15.36;72.12
12722;BME280;6425;50.316;8.114;2022-10-16T02:51:01;98780.66;;;14.55;75.71
12722;BME280;6425;50.316;8.114;2022-10-16T02:56:01;98778.44;;;13.91;76.43
12722;BME280;6425;50.316;8.114;2022-10-16T03:01:03;98787.22;;;13.69;77.79
12722;BME280;6425;50.316;8.114;2022-10-16T03:06:04;98772.03;;;13.71;77.29
12722;BME280;6425;50.316;8.114;2022-10-16T03:11:05;98754.81;;;13.85;75.70
12722;BME280;6425;50.316;8.114;2022-10-16T03:16:07;98762.59;;;14.01;75.06
12722;BME280;6425;50.316;8.114;2022-10-16T03:21:07;98762.41;;;13.40;74.66
12722;BME280;6425;50.316;8.114;2022-10-16T03:26:08;98737.75;;;14.06;73.25
12722;BME280;6425;50.316;8.114;2022-10-16T03:31:10;98761.72;;;14.49;71.03
12722;BME280;6425;50.316;8.114;2022-10-16T03:36:10;98727.19;;;14.14;71.84
12722;BME280;6425;50.316;8.114;2022-10-16T03:41:10;98753.34;;;14.54;72.08
12722;BME280;6425;50.316;8.114;2022-10-16T03:46:12;98767.94;;;14.78;71.87
12722;BME280;6425;50.316;8.114;2022-10-16T03:51:13;98780.09;;;14.77;70.28
12722;BME280;6425;50.316;8.114;2022-10-16T03:56:13;98794.81;;;15.24;72.59
12722;BME280;6425;50.316;8.114;2022-10-16T04:01:15;98786.69;;;15.93;68.58
12722;BME280;6425;50.316;8.114;2022-10-16T04:06:16;98793.34;;;16.34;67.01
12722;BME280;6425;50.316;8.114;2022-10-16T04:11:16;98817.88;;;16.76;64.97
12722;BME280;6425;50.316;8.114;2022-10-16T04:16:18;98800.84;;;16.97;64.12
12722;BME280;6425;50.316;8.114;2022-10-16T04:21:18;98813.56;;;16.84;64.38
12722;BME280;6425;50.316;8.114;2022-10-16T04:26:19;98811.63;;;16.85;64.94
12722;BME280;6425;50.316;8.114;2022-10-16T04:31:21;98820.66;;;16.63;66.28
12722;BME280;6425;50.316;8.114;2022-10-16T04:36:21;98813.91;;;16.41;67.08
12722;BME280;6425;50.316;8.114;2022-10-16T04:41:21;98815.44;;;15.92;68.95
12722;BME280;6425;50.316;8.114;2022-10-16T04:46:23;98814.22;;;15.85;69.14
12722;BME280;6425;50.316;8.114;2022-10-16T04:51:24;98827.91;;;15.24;72.03
12722;BME280;6425;50.316;8.114;2022-10-16T04:56:24;98807.44;;;15.12;73.12
12722;BME280;6425;50.316;8.114;2022-10-16T05:01:26;98809.84;;;14.80;74.76
12722;BME280;6425;50.316;8.114;2022-10-16T05:06:27;98809.53;;;14.58;76.18
12722;BME280;6425;50.316;8.114;2022-10-16T05:11:27;98815.28;;;14.62;75.49
12722;BME280;6425;50.316;8.114;2022-10-16T05:16:30;98817.63;;;14.73;75.68
12722;BME280;6425;50.316;8.114;2022-10-16T05:21:30;98825.78;;;15.54;73.40
12722;BME280;6425;50.316;8.114;2022-10-16T05:26:30;98835.69;;;15.88;71.99
12722;BME280;6425;50.316;8.114;2022-10-16T05:31:32;98829.34;;;15.87;72.06
12722;BME280;6425;50.316;8.114;2022-10-16T05:36:33;98825.69;;;16.33;69.52
12722;BME280;6425;50.316;8.114;2022-10-16T05:41:33;98827.34;;;16.20;70.13
12722;BME280;6425;50.316;8.114;2022-10-16T05:46:35;98808.91;;;16.29;69.77
12722;BME280;6425;50.316;8.114;2022-10-16T05:51:35;98817.81;;;15.99;70.12
12722;BME280;6425;50.316;8.114;2022-10-16T05:56:36;98829.56;;;16.04;69.25
12722;BME280;6425;50.316;8.114;2022-10-16T06:01:37;98848.47;;;14.75;74.76
12722;BME280;6425;50.316;8.114;2022-10-16T06:06:38;98850.53;;;15.08;74.91
12722;BME280;6425;50.316;8.114;2022-10-16T06:11:38;98860.53;;;15.55;73.59
12722;BME280;6425;50.316;8.114;2022-10-16T06:16:40;98847.47;;;15.28;73.41
12722;BME280;6425;50.316;8.114;2022-10-16T06:21:41;98857.47;;;15.56;74.10
12722;BME280;6425;50.316;8.114;2022-10-16T06:26:41;98852.41;;;16.10;72.54
12722;BME280;6425;50.316;8.114;2022-10-16T06:31:43;98856.31;;;16.23;71.34
12722;BME280;6425;50.316;8.114;2022-10-16T06:36:44;98876.69;;;15.10;73.73
12722;BME280;6425;50.316;8.114;2022-10-16T06:41:44;98882.19;;;14.72;73.97
12722;BME280;6425;50.316;8.114;2022-10-16T06:46:50;98883.34;;;15.61;73.55
12722;BME280;6425;50.316;8.114;2022-10-16T06:51:51;98890.00;;;15.92;72.48
12722;BME280;6425;50.316;8.114;2022-10-16T06:56:51;98888.75;;;16.86;68.65
12722;BME280;6425;50.316;8.114;2022-10-16T07:01:53;98908.03;;;16.77;68.65
12722;BME280;6425;50.316;8.114;2022-10-16T07:06:53;98913.56;;;14.76;74.90
12722;BME280;6425;50.316;8.114;2022-10-16T07:11:54;98941.78;;;15.30;76.31
12722;BME280;6425;50.316;8.114;2022-10-16T07:16:56;98944.22;;;16.21;73.02
12722;BME280;6425;50.316;8.114;2022-10-16T07:21:56;98957.47;;;16.65;70.53
12722;BME280;6425;50.316;8.114;2022-10-16T07:26:57;98960.25;;;16.65;70.03
12722;BME280;6425;50.316;8.114;2022-10-16T07:31:59;98975.34;;;17.14;69.54
12722;BME280;6425;50.316;8.114;2022-10-16T07:36:59;98964.34;;;17.37;67.88
12722;BME280;6425;50.316;8.114;2022-10-16T07:42:00;98970.44;;;17.11;68.12
12722;BME280;6425;50.316;8.114;2022-10-16T07:47:01;98983.06;;;17.53;66.86
12722;BME280;6425;50.316;8.114;2022-10-16T07:57:56;98984.25;;;14.67;81.12
12722;BME280;6425;50.316;8.114;2022-10-16T08:21:30;99028.50;;;14.18;84.74
12722;BME280;6425;50.316;8.114;2022-10-16T08:26:30;99027.38;;;14.53;82.82
12722;BME280;6425;50.316;8.114;2022-10-16T08:31:31;99042.78;;;14.54;82.72
12722;BME280;6425;50.316;8.114;2022-10-16T08:36:32;99041.16;;;14.82;82.20
12722;BME280;6425;50.316;8.114;2022-10-16T08:47:13;99053.78;;;15.12;81.51
12722;BME280;6425;50.316;8.114;2022-10-16T08:52:19;99047.06;;;15.61;80.07
12722;BME280;6425;50.316;8.114;2022-10-16T08:57:21;99058.09;;;15.42;79.04
12722;BME280;6425;50.316;8.114;2022-10-16T09:02:26;99057.72;;;15.06;79.60
12722;BME280;6425;50.316;8.114;2022-10-16T09:07:34;99068.66;;;15.16;79.17
12722;BME280;6425;50.316;8.114;2022-10-16T09:12:44;99076.63;;;15.18;79.57
12722;BME280;6425;50.316;8.114;2022-10-16T09:17:54;99083.06;;;15.08;78.58
12722;BME280;6425;50.316;8.114;2022-10-16T09:23:10;99076.44;;;15.09;79.36
12722;BME280;6425;50.316;8.114;2022-10-16T09:28:13;99085.72;;;15.61;79.56
12722;BME280;6425;50.316;8.114;2022-10-16T09:33:14;99082.81;;;15.76;77.42
12722;BME280;6425;50.316;8.114;2022-10-16T09:38:25;99105.44;;;15.30;78.70
12722;BME280;6425;50.316;8.114;2022-10-16T09:43:28;99132.03;;;15.21;80.96
12722;BME280;6425;50.316;8.114;2022-10-16T09:48:36;99125.50;;;15.60;79.86
12722;BME280;6425;50.316;8.114;2022-10-16T09:53:41;99123.47;;;15.47;79.31
12722;BME280;6425;50.316;8.114;2022-10-16T09:58:42;99138.75;;;15.63;79.73
12722;BME280;6425;50.316;8.114;2022-10-16T10:03:43;99127.31;;;15.70;79.68
12722;BME280;6425;50.316;8.114;2022-10-16T10:09:00;99130.16;;;15.65;79.22
12722;BME280;6425;50.316;8.114;2022-10-16T10:14:05;99130.63;;;16.15;77.53
12722;BME280;6425;50.316;8.114;2022-10-16T10:19:12;99136.50;;;15.65;77.72
12722;BME280;6425;50.316;8.114;2022-10-16T10:24:17;99138.47;;;15.84;77.91
12722;BME280;6425;50.316;8.114;2022-10-16T10:29:28;99136.28;;;16.23;75.94
12722;BME280;6425;50.316;8.114;2022-10-16T10:34:44;99120.22;;;17.78;71.25
12722;BME280;6425;50.316;8.114;2022-10-16T10:39:55;99118.78;;;17.53;70.91
12722;BME280;6425;50.316;8.114;2022-10-16T10:45:16;99120.75;;;18.75;66.78
12722;BME280;6425;50.316;8.114;2022-10-16T10:50:23;99123.41;;;18.22;68.22
12722;BME280;6425;50.316;8.114;2022-10-16T10:55:33;99122.13;;;18.05;67.94
12722;BME280;6425;50.316;8.114;2022-10-16T11:00:44;99111.59;;;17.11;71.82
12722;BME280;6425;50.316;8.114;2022-10-16T11:05:50;99117.78;;;16.75;72.65
12722;BME280;6425;50.316;8.114;2022-10-16T11:10:58;99115.16;;;18.53;67.66
12722;BME280;6425;50.316;8.114;2022-10-16T11:16:04;99105.63;;;17.87;69.18
12722;BME280;6425;50.316;8.114;2022-10-16T11:21:10;99118.75;;;17.95;69.00
12722;BME280;6425;50.316;8.114;2022-10-16T11:26:17;99107.63;;;18.67;65.88
12722;BME280;6425;50.316;8.114;2022-10-16T11:31:23;99111.16;;;17.87;68.00
12722;BME280;6425;50.316;8.114;2022-10-16T11:36:30;99117.81;;;17.03;71.92
12722;BME280;6425;50.316;8.114;2022-10-16T11:41:37;99114.66;;;17.92;69.38
12722;BME280;6425;50.316;8.114;2022-10-16T11:46:49;99121.19;;;18.10;68.16
12722;BME280;6425;50.316;8.114;2022-10-16T11:51:56;99126.06;;;16.75;72.16
12722;BME280;6425;50.316;8.114;2022-10-16T11:57:03;99122.09;;;16.95;71.77
12722;BME280;6425;50.316;8.114;2022-10-16T12:02:28;99119.06;;;17.24;70.85
12722;BME280;6425;50.316;8.114;2022-10-16T12:07:35;99120.53;;;17.36;71.19
12722;BME280;6425;50.316;8.114;2022-10-16T12:12:39;99117.53;;;18.23;68.20
12722;BME280;6425;50.316;8.114;2022-10-16T12:17:40;99111.59;;;17.52;70.70
12722;BME280;6425;50.316;8.114;2022-10-16T12:22:42;99115.81;;;17.22;71.79
12722;BME280;6425;50.316;8.114;2022-10-16T12:27:56;99123.91;;;17.19;71.76
12722;BME280;6425;50.316;8.114;2022-10-16T12:32:58;99116.09;;;17.62;70.70
12722;BME280;6425;50.316;8.114;2022-10-16T12:38:07;99121.63;;;17.90;69.39
12722;BME280;6425;50.316;8.114;2022-10-16T12:43:26;99137.16;;;17.36;72.75
12722;BME280;6425;50.316;8.114;2022-10-16T12:48:26;99142.19;;;17.61;71.26
12722;BME280;6425;50.316;8.114;2022-10-16T12:53:27;99143.19;;;17.38;71.95
12722;BME280;6425;50.316;8.114;2022-10-16T12:58:39;99151.50;;;17.65;71.72
12722;BME280;6425;50.316;8.114;2022-10-16T13:04:19;99148.72;;;17.93;70.53
12722;BME280;6425;50.316;8.114;2022-10-16T13:09:34;99144.78;;;19.11;68.30
12722;BME280;6425;50.316;8.114;2022-10-16T13:15:04;99147.00;;;18.69;69.67
12722;BME280;6425;50.316;8.114;2022-10-16T13:20:17;99136.19;;;19.21;67.19
12722;BME280;6425;50.316;8.114;2022-10-16T13:25:29;99128.75;;;19.88;66.35
12722;BME280;6425;50.316;8.114;2022-10-16T13:30:39;99138.00;;;20.49;62.84
12722;BME280;6425;50.316;8.114;2022-10-16T13:35:48;99152.41;;;20.51;64.46
12722;BME280;6425;50.316;8.114;2022-10-16T13:40:54;99152.41;;;19.68;66.91
12722;BME280;6425;50.316;8.114;2022-10-16T13:45:59;99155.16;;;18.52;68.12
12722;BME280;6425;50.316;8.114;2022-10-16T13:51:02;99137.34;;;18.30;69.58
12722;BME280;6425;50.316;8.114;2022-10-16T13:56:05;99152.81;;;18.90;67.84
12722;BME280;6425;50.316;8.114;2022-10-16T14:01:16;99147.47;;;18.71;68.19
12722;BME280;6425;50.316;8.114;2022-10-16T14:06:19;99159.44;;;18.58;67.76
12722;BME280;6425;50.316;8.114;2022-10-16T14:11:22;99152.88;;;19.61;65.41
12722;BME280;6425;50.316;8.114;2022-10-16T14:16:27;99149.16;;;19.35;66.42
12722;BME280;6425;50.316;8.114;2022-10-16T14:21:29;99147.31;;;20.27;63.21
12722;BME280;6425;50.316;8.114;2022-10-16T14:26:41;99135.16;;;19.97;62.49
12722;BME280;6425;50.316;8.114;2022-10-16T14:31:54;99142.13;;;19.37;65.44
12722;BME280;6425;50.316;8.114;2022-10-16T14:37:20;99147.94;;;20.24;63.65
12722;BME280;6425;50.316;8.114;2022-10-16T14:42:25;99146.78;;;19.19;65.45
12722;BME280;6425;50.316;8.114;2022-10-16T14:47:29;99140.75;;;20.23;63.14
12722;BME280;6425;50.316;8.114;2022-10-16T14:52:29;99149.13;;;20.66;61.86
12722;BME280;6425;50.316;8.114;2022-10-16T14:57:32;99145.50;;;20.22;63.15
12722;BME280;6425;50.316;8.114;2022-10-16T15:02:36;99154.34;;;20.24;62.95
12722;BME280;6425;50.316;8.114;2022-10-16T15:07:36;99153.63;;;19.93;63.77
12722;BME280;6425;50.316;8.114;2022-10-16T15:12:37;99160.81;;;19.94;63.68
12722;BME280;6425;50.316;8.114;2022-10-16T15:17:39;99169.28;;;20.81;62.21
12722;BME280;6425;50.316;8.114;2022-10-16T15:22:39;99160.53;;;20.04;63.37
12722;BME280;6425;50.316;8.114;2022-10-16T15:27:39;99182.69;;;19.78;64.68
12722;BME280;6425;50.316;8.114;2022-10-16T15:32:41;99174.31;;;19.29;67.20
12722;BME280;6425;50.316;8.114;2022-10-16T15:37:42;99174.63;;;19.68;65.88
12722;BME280;6425;50.316;8.114;2022-10-16T15:42:42;99177.84;;;18.99;67.96
12722;BME280;6425;50.316;8.114;2022-10-16T15:47:44;99176.03;;;18.72;69.46
12722;BME280;6425;50.316;8.114;2022-10-16T15:52:45;99174.34;;;18.85;69.56
12722;BME280;6425;50.316;8.114;2022-10-16T15:57:46;99179.28;;;18.65;70.30
12722;BME280;6425;50.316;8.114;2022-10-16T16:02:51;99179.66;;;18.95;69.23
12722;BME280;6425;50.316;8.114;2022-10-16T16:07:52;99168.47;;;19.09;68.23
12722;BME280;6425;50.316;8.114;2022-10-16T16:12:53;99154.31;;;18.65;69.24
12722;BME280;6425;50.316;8.114;2022-10-16T16:17:55;99161.91;;;19.36;67.73
12722;BME280;6425;50.316;8.114;2022-10-16T16:22:55;99161.91;;;19.36;67.35
12722;BME280;6425;50.316;8.114;2022-10-16T16:27:56;99169.41;;;19.35;67.15
12722;BME280;6425;50.316;8.114;2022-10-16T16:32:58;99173.31;;;19.03;68.80
12722;BME280;6425;50.316;8.114;2022-10-16T16:37:58;99173.47;;;18.75;69.38
12722;BME280;6425;50.316;8.114;2022-10-16T16:42:59;99174.41;;;18.93;69.43
12722;BME280;6425;50.316;8.114;2022-10-16T16:48:00;99184.09;;;19.27;69.18
12722;BME280;6425;50.316;8.114;2022-10-16T16:53:01;99181.84;;;19.38;67.75
12722;BME280;6425;50.316;8.114;2022-10-16T17:13:48;99219.59;;;20.18;64.52
12722;BME280;6425;50.316;8.114;2022-10-16T17:18:49;99209.81;;;20.29;63.71
12722;BME280;6425;50.316;8.114;2022-10-16T17:23:51;99213.94;;;20.41;63.06
12722;BME280;6425;50.316;8.114;2022-10-16T17:28:54;99215.38;;;20.21;63.54
12722;BME280;6425;50.316;8.114;2022-10-16T17:33:57;99220.75;;;20.17;63.89
12722;BME280;6425;50.316;8.114;2022-10-16T17:38:58;99215.16;;;20.00;63.92
12722;BME280;6425;50.316;8.114;2022-10-16T17:44:00;99228.69;;;19.93;63.84
12722;BME280;6425;50.316;8.114;2022-10-16T17:49:01;99225.28;;;19.56;64.18
12722;BME280;6425;50.316;8.114;2022-10-16T17:54:02;99234.13;;;18.68;67.30
12722;BME280;6425;50.316;8.114;2022-10-16T17:59:04;99237.34;;;18.48;67.36
12722;BME280;6425;50.316;8.114;2022-10-16T18:04:07;99236.28;;;18.21;68.44
12722;BME280;6425;50.316;8.114;2022-10-16T18:09:10;99234.72;;;18.15;68.58
12722;BME280;6425;50.316;8.114;2022-10-16T18:14:15;99241.59;;;18.04;69.08
12722;BME280;6425;50.316;8.114;2022-10-16T18:19:15;99234.94;;;18.19;68.31
12722;BME280;6425;50.316;8.114;2022-10-16T18:24:16;99244.59;;;17.80;68.96
12722;BME280;6425;50.316;8.114;2022-10-16T18:29:18;99249.31;;;18.07;70.31
12722;BME280;6425;50.316;8.114;2022-10-16T18:34:19;99254.25;;;17.83;69.38
12722;BME280;6425;50.316;8.114;2022-10-16T18:39:20;99250.84;;;17.86;67.98
12722;BME280;6425;50.316;8.114;2022-10-16T18:44:21;99263.06;;;17.98;68.33
12722;BME280;6425;50.316;8.114;2022-10-16T18:49:23;99266.97;;;17.84;68.57
12722;BME280;6425;50.316;8.114;2022-10-16T18:54:23;99260.81;;;17.73;67.86
12722;BME280;6425;50.316;8.114;2022-10-16T18:59:25;99268.50;;;17.90;67.90
12722;BME280;6425;50.316;8.114;2022-10-16T19:04:26;99276.63;;;17.40;68.07
12722;BME280;6425;50.316;8.114;2022-10-16T19:09:26;99280.00;;;16.85;70.29
12722;BME280;6425;50.316;8.114;2022-10-16T19:14:28;99270.66;;;16.62;72.77
12722;BME280;6425;50.316;8.114;2022-10-16T19:19:28;99276.25;;;16.95;71.73
12722;BME280;6425;50.316;8.114;2022-10-16T19:24:29;99276.31;;;16.52;70.45
12722;BME280;6425;50.316;8.114;2022-10-16T19:29:31;99291.44;;;17.30;69.10
12722;BME280;6425;50.316;8.114;2022-10-16T19:34:31;99297.59;;;16.75;70.56
12722;BME280;6425;50.316;8.114;2022-10-16T19:39:32;99308.72;;;16.27;72.16
12722;BME280;6425;50.316;8.114;2022-10-16T19:44:34;99295.66;;;16.52;71.68
12722;BME280;6425;50.316;8.114;2022-10-16T19:49:34;99303.41;;;16.93;72.13
12722;BME280;6425;50.316;8.114;2022-10-16T19:54:35;99298.63;;;16.98;71.73
12722;BME280;6425;50.316;8.114;2022-10-16T19:59:37;99296.66;;;16.99;71.52
12722;BME280;6425;50.316;8.114;2022-10-16T20:04:37;99297.47;;;17.18;72.05
12722;BME280;6425;50.316;8.114;2022-10-16T20:09:37;99294.16;;;17.35;70.92
12722;BME280;6425;50.316;8.114;2022-10-16T20:14:39;99295.38;;;17.43;69.41
12722;BME280;6425;50.316;8.114;2022-10-16T20:19:39;99303.72;;;16.48;70.80
12722;BME280;6425;50.316;8.114;2022-10-16T20:24:40;99304.56;;;16.68;71.59
12722;BME280;6425;50.316;8.114;2022-10-16T20:29:42;99305.59;;;17.28;69.45
12722;BME280;6425;50.316;8.114;2022-10-16T20:34:42;99310.00;;;17.29;69.03
12722;BME280;6425;50.316;8.114;2022-10-16T20:39:44;99310.44;;;16.85;69.01
12722;BME280;6425;50.316;8.114;2022-10-16T20:44:45;99310.84;;;16.12;73.64
12722;BME280;6425;50.316;8.114;2022-10-16T20:49:46;99319.78;;;16.27;74.98
12722;BME280;6425;50.316;8.114;2022-10-16T20:54:47;99307.09;;;16.64;73.13
12722;BME280;6425;50.316;8.114;2022-10-16T20:59:48;99307.44;;;16.82;70.97
12722;BME280;6425;50.316;8.114;2022-10-16T21:04:49;99307.09;;;16.88;71.44
12722;BME280;6425;50.316;8.114;2022-10-16T21:09:49;99315.38;;;17.07;69.74
12722;BME280;6425;50.316;8.114;2022-10-16T21:14:51;99314.44;;;16.31;71.05
12722;BME280;6425;50.316;8.114;2022-10-16T21:19:52;99326.69;;;16.25;71.42
12722;BME280;6425;50.316;8.114;2022-10-16T21:24:52;99322.28;;;16.00;72.11
12722;BME280;6425;50.316;8.114;2022-10-16T21:29:54;99317.13;;;15.64;73.12
12722;BME280;6425;50.316;8.114;2022-10-16T21:34:55;99314.34;;;15.64;75.17
12722;BME280;6425;50.316;8.114;2022-10-16T21:39:55;99311.47;;;16.03;73.81
12722;BME280;6425;50.316;8.114;2022-10-16T21:44:57;99297.06;;;15.83;72.96
12722;BME280;6425;50.316;8.114;2022-10-16T21:49:57;99309.44;;;15.56;73.81
12722;BME280;6425;50.316;8.114;2022-10-16T21:54:58;99307.19;;;16.16;72.53
12722;BME280;6425;50.316;8.114;2022-10-16T22:00:00;99306.97;;;15.89;71.02
12722;BME280;6425;50.316;8.114;2022-10-16T22:05:00;99299.38;;;15.70;71.33
12722;BME280;6425;50.316;8.114;2022-10-16T22:10:01;99314.19;;;15.85;71.99
12722;BME280;6425;50.316;8.114;2022-10-16T22:15:04;99312.41;;;13.67;74.79
12722;BME280;6425;50.316;8.114;2022-10-16T22:20:05;99316.84;;;13.73;81.45
12722;BME280;6425;50.316;8.114;2022-10-16T22:25:07;99307.16;;;14.55;76.47
12722;BME280;6425;50.316;8.114;2022-10-16T22:30:10;99325.53;;;15.49;73.24
12722;BME280;6425;50.316;8.114;2022-10-16T22:35:10;99323.63;;;15.10;72.98
12722;BME280;6425;50.316;8.114;2022-10-16T22:40:11;99340.38;;;14.85;74.80
12722;BME280;6425;50.316;8.114;2022-10-16T22:45:13;99331.66;;;15.12;72.66
12722;BME280;6425;50.316;8.114;2022-10-16T22:50:13;99334.47;;;15.36;72.63
12722;BME280;6425;50.316;8.114;2022-10-16T22:55:14;99331.03;;;15.49;71.46
12722;BME280;6425;50.316;8.114;2022-10-16T23:00:18;99339.53;;;15.28;71.71
12722;BME280;6425;50.316;8.114;2022-10-16T23:05:18;99340.03;;;15.30;71.82
12722;BME280;6425;50.316;8.114;2022-10-16T23:10:19;99347.34;;;15.50;70.53
12722;BME280;6425;50.316;8.114;2022-10-16T23:15:21;99351.53;;;15.77;69.61
12722;BME280;6425;50.316;8.114;2022-10-16T23:20:23;99362.25;;;15.15;71.01
12722;BME280;6425;50.316;8.114;2022-10-16T23:25:23;99357.72;;;15.29;70.74
12722;BME280;6425;50.316;8.114;2022-10-16T23:30:25;99358.22;;;15.37;69.43
12722;BME280;6425;50.316;8.114;2022-10-16T23:35:25;99363.69;;;15.08;70.46
12722;BME280;6425;50.316;8.114;2022-10-16T23:40:26;99349.44;;;14.30;73.29
12722;BME280;6425;50.316;8.114;2022-10-16T23:45:28;99350.81;;;14.88;74.12
12722;BME280;6425;50.316;8.114;2022-10-16T23:50:28;99363.41;;;15.04;72.26
12722;BME280;6425;50.316;8.114;2022-10-16T23:55:29;99352.50;;;14.84;72.45
